Latest Weather Observations for Point Wilson

IDV60801

Issued at 2:05 am EDT Wednesday 22 October 2014 (issued every 30 minutes, with the page automatically refreshed every 10 minutes)

About weather observations | Map of weather stations | Latest weather observations for VIC | Other Formats
Station Details ID: 087166 Name: POINT WILSON Lat: -38.10 Lon: 144.54 Height: 18.0 m
Data from the previous 72 hours. | See also: Recent months at Point Wilson
Date/Time
EDT
Temp
°C
App
Temp
°C
Dew
Point
Rel
Hum
%
Delta-T
°C
Wind Press
QNH
hPa
Press
MSL
hPa
Rain
since 9 am
mm
Dir
 
Spd
km/h
Gust
km/h
Spd
kts
Gust
kts
22/02:00am - - - - - ENE 15 17 8 9 - - -
22/01:30am - - - - - E 22 26 12 14 - - -
22/01:00am - - - - - E 20 24 11 13 - - -
22/12:30am - - - - - E 19 22 10 12 - - -
22/12:00am - - - - - ENE 17 20 9 11 - - -
 
Date/Time
EDT
Temp
°C
App
Temp
°C
Dew
Point
Rel
Hum
%
Delta-T
°C
Wind Press
QNH
hPa
Press
MSL
hPa
Rain
since 9 am
mm
Dir
 
Spd
km/h
Gust
km/h
Spd
kts
Gust
kts
21/11:30pm - - - - - ENE 20 24 11 13 - - -
21/11:00pm - - - - - E 24 32 13 17 - - -
21/10:30pm - - - - - E 30 33 16 18 - - -
21/10:00pm - - - - - E 30 39 16 21 - - -
21/09:30pm - - - - - E 30 35 16 19 - - -
21/09:00pm - - - - - E 28 30 15 16 - - -
21/08:30pm - - - - - E 24 30 13 16 - - -
21/08:00pm - - - - - ESE 17 19 9 10 - - -
21/07:30pm - - - - - ESE 17 20 9 11 - - -
21/07:00pm - - - - - ESE 20 24 11 13 - - -
21/06:30pm - - - - - ESE 22 26 12 14 - - -
21/06:00pm - - - - - E 26 30 14 16 - - -
21/05:30pm - - - - - E 24 26 13 14 - - -
21/05:00pm - - - - - E 24 28 13 15 - - -
21/04:30pm - - - - - E 22 28 12 15 - - -
21/04:00pm - - - - - E 20 24 11 13 - - -
21/03:30pm - - - - - E 19 24 10 13 - - -
21/03:00pm - - - - - E 20 22 11 12 - - -
21/02:30pm - - - - - E 19 24 10 13 - - -
21/02:00pm - - - - - E 17 20 9 11 - - -
21/01:30pm - - - - - ESE 17 20 9 11 - - -
21/01:00pm - - - - - E 17 20 9 11 - - -
21/12:30pm - - - - - E 20 22 11 12 - - -
21/12:00pm - - - - - E 22 26 12 14 - - -
21/11:30am - - - - - E 24 28 13 15 - - -
21/11:00am - - - - - E 26 28 14 15 - - -
21/10:30am - - - - - ENE 22 26 12 14 - - -
21/10:00am - - - - - ENE 24 28 13 15 - - -
21/09:30am - - - - - ENE 22 26 12 14 - - -
21/09:00am - - - - - ENE 20 26 11 14 - - -
21/08:30am - - - - - ENE 19 20 10 11 - - -
21/08:00am - - - - - ENE 15 17 8 9 - - -
21/07:30am - - - - - NE 13 17 7 9 - - -
21/07:00am - - - - - NE 13 17 7 9 - - -
21/06:30am - - - - - ENE 17 20 9 11 - - -
21/06:00am - - - - - ENE 20 24 11 13 - - -
21/05:30am - - - - - ENE 22 26 12 14 - - -
21/05:00am - - - - - E 26 32 14 17 - - -
21/04:30am - - - - - E 28 32 15 17 - - -
21/04:00am - - - - - E 30 35 16 19 - - -
21/03:30am - - - - - ESE 32 37 17 20 - - -
21/03:00am - - - - - ESE 35 41 19 22 - - -
21/02:30am - - - - - E 33 39 18 21 - - -
21/02:00am - - - - - ESE 39 46 21 25 - - -
21/01:30am - - - - - ESE 39 44 21 24 - - -
21/01:00am - - - - - ESE 39 46 21 25 - - -
21/12:30am - - - - - ESE 30 39 16 21 - - -
21/12:00am - - - - - ESE 30 35 16 19 - - -
 
Date/Time
EDT
Temp
°C
App
Temp
°C
Dew
Point
Rel
Hum
%
Delta-T
°C
Wind Press
QNH
hPa
Press
MSL
hPa
Rain
since 9 am
mm
Dir
 
Spd
km/h
Gust
km/h
Spd
kts
Gust
kts
20/11:30pm - - - - - SE 30 33 16 18 - - -
20/11:00pm - - - - - SE 26 32 14 17 - - -
20/10:30pm - - - - - ESE 30 37 16 20 - - -
20/10:00pm - - - - - SE 30 35 16 19 - - -
20/09:30pm - - - - - SE 30 35 16 19 - - -
20/09:00pm - - - - - SE 26 32 14 17 - - -
20/08:30pm - - - - - SSE 30 37 16 20 - - -
20/08:00pm - - - - - SSE 33 39 18 21 - - -
20/07:30pm - - - - - SSE 33 37 18 20 - - -
20/07:00pm - - - - - SSE 35 39 19 21 - - -
20/06:30pm - - - - - SE 35 43 19 23 - - -
20/06:00pm - - - - - SSE 35 43 19 23 - - -
20/05:30pm - - - - - SSE 33 39 18 21 - - -
20/05:00pm - - - - - SSE 30 33 16 18 - - -
20/04:30pm - - - - - SSE 26 30 14 16 - - -
20/04:00pm - - - - - S 30 35 16 19 - - -
20/03:30pm - - - - - S 30 35 16 19 - - -
20/03:00pm - - - - - S 32 37 17 20 - - -
20/02:30pm - - - - - SSE 20 28 11 15 - - -
20/02:00pm - - - - - SE 20 28 11 15 - - -
20/01:30pm - - - - - SE 22 28 12 15 - - -
20/01:00pm - - - - - SE 24 32 13 17 - - -
20/12:30pm - - - - - SE 24 37 13 20 - - -
20/12:00pm - - - - - SE 26 32 14 17 - - -
20/11:30am - - - - - SE 30 39 16 21 - - -
20/11:00am - - - - - ESE 28 33 15 18 - - -
20/10:30am - - - - - SE 30 44 16 24 - - -
20/10:00am - - - - - ESE 32 39 17 21 - - -
20/09:30am - - - - - SE 32 43 17 23 - - -
20/09:00am - - - - - SE 33 43 18 23 - - -
20/08:30am - - - - - SE 32 39 17 21 - - -
20/08:00am - - - - - SE 28 35 15 19 - - -
20/07:30am - - - - - ESE 24 28 13 15 - - -
20/07:00am - - - - - SE 30 35 16 19 - - -
20/06:30am - - - - - SE 33 37 18 20 - - -
20/06:00am - - - - - SE 28 37 15 20 - - -
20/05:30am - - - - - SE 28 33 15 18 - - -
20/05:00am - - - - - SE 26 30 14 16 - - -
20/04:30am - - - - - SE 26 32 14 17 - - -
20/04:00am - - - - - SE 26 32 14 17 - - -
20/03:30am - - - - - SE 26 32 14 17 - - -
20/03:00am - - - - - SSE 26 32 14 17 - - -
20/02:30am - - - - - SSE 28 37 15 20 - - -
20/02:00am - - - - - SSE 28 33 15 18 - - -
20/01:30am - - - - - SSE 28 32 15 17 - - -
20/01:00am - - - - - S 28 37 15 20 - - -
20/12:30am - - - - - S 26 32 14 17 - - -
20/12:00am - - - - - S 28 32 15 17 - - -
 
Date/Time
EDT
Temp
°C
App
Temp
°C
Dew
Point
Rel
Hum
%
Delta-T
°C
Wind Press
QNH
hPa
Press
MSL
hPa
Rain
since 9 am
mm
Dir
 
Spd
km/h
Gust
km/h
Spd
kts
Gust
kts
19/11:30pm - - - - - S 28 33 15 18 - - -
19/11:00pm - - - - - S 30 33 16 18 - - -
19/10:30pm - - - - - S 39 46 21 25 - - -
19/10:00pm - - - - - S 35 41 19 22 - - -
19/09:30pm - - - - - S 37 44 20 24 - - -
19/09:00pm - - - - - SSW 33 39 18 21 - - -
19/08:30pm - - - - - SSW 33 41 18 22 - - -
19/08:00pm - - - - - SSW 33 39 18 21 - - -
19/07:30pm - - - - - S 33 37 18 20 - - -
19/07:00pm - - - - - SSW 48 56 26 30 - - -
19/06:30pm - - - - - SSW 41 52 22 28 - - -
19/06:00pm - - - - - SSW 41 52 22 28 - - -
19/05:30pm - - - - - SSW 46 56 25 30 - - -
19/05:00pm - - - - - SSW 37 46 20 25 - - -
19/04:30pm - - - - - S 39 46 21 25 - - -
19/04:00pm - - - - - SSW 37 41 20 22 - - -
19/03:30pm - - - - - S 41 46 22 25 - - -
19/03:00pm - - - - - S 41 48 22 26 - - -
19/02:30pm - - - - - S 35 41 19 22 - - -
19/02:00pm - - - - - S 37 41 20 22 - - -
19/01:30pm - - - - - S 35 46 19 25 - - -
19/01:00pm - - - - - NNW 26 39 14 21 - - -
19/12:31pm - - - - - NNW 32 50 17 27 - - -
19/12:30pm - - - - - NNW 30 39 16 21 - - -
19/12:00pm - - - - - N 26 32 14 17 - - -
19/11:30am - - - - - N 33 39 18 21 - - -
19/11:00am - - - - - N 26 30 14 16 - - -
19/10:30am - - - - - N 33 35 18 19 - - -
19/10:00am - - - - - N 32 37 17 20 - - -
19/09:30am - - - - - N 28 30 15 16 - - -
19/09:00am - - - - - N 22 26 12 14 - - -
19/08:30am - - - - - N 28 30 15 16 - - -
19/08:00am - - - - - N 30 35 16 19 - - -
19/07:30am - - - - - NNE 28 30 15 16 - - -
19/07:00am - - - - - NNE 24 28 13 15 - - -
19/06:30am - - - - - N 30 33 16 18 - - -
19/06:00am - - - - - N 35 41 19 22 - - -
19/05:30am - - - - - N 41 48 22 26 - - -
19/05:00am - - - - - N 41 48 22 26 - - -
19/04:30am - - - - - N 46 56 25 30 - - -
19/04:00am - - - - - N 48 57 26 31 - - -
19/03:30am - - - - - N 41 50 22 27 - - -
19/03:00am - - - - - N 39 48 21 26 - - -
19/02:55am - - - - - N 33 48 18 26 - - -
19/02:30am - - - - - NNE 24 28 13 15 - - -

Other Formats:

Comma delimited format used in spreadsheet applications
http://www.bom.gov.au/fwo/IDV60801/IDV60801.94847.axf

JavaScript Object Notation format (JSON) in row-major order
http://www.bom.gov.au/fwo/IDV60801/IDV60801.94847.json